Time;durP1;ratioP1;P1;durP2;ratioP2;P2;SDS_P1;SDS_P2;PMS_P1;PMS_P2;Temp;Humidity;BMP_temperature;BMP_pressure;BME280_temperature;BME280_humidity;BME280_pressure;Samples;Min_cycle;Max_cycle;Signal;HPM_P1;HPM_P2
2021/08/07 00:02:03;;;;;;;15.23;4.13;;;16.50;99.90;;;;;;4989495;28;25135;-69
2021/08/07 00:04:29;;;;;;;13.18;3.50;;;16.50;99.90;;;;;;4989794;28;25052;-68
2021/08/07 00:06:55;;;;;;;13.15;3.58;;;16.40;99.90;;;;;;4993108;28;25092;-67
2021/08/07 00:09:20;;;;;;;9.77;3.47;;;16.50;99.90;;;;;;4989452;28;25080;-68
2021/08/07 00:11:46;;;;;;;11.55;3.13;;;16.50;99.90;;;;;;4989200;28;25143;-68
2021/08/07 00:14:12;;;;;;;14.73;3.40;;;16.50;99.90;;;;;;4990156;28;25073;-68
2021/08/07 00:16:37;;;;;;;13.02;3.53;;;16.50;99.90;;;;;;4991080;28;25062;-68
2021/08/07 00:19:04;;;;;;;14.93;3.40;;;16.60;99.90;;;;;;4991589;28;25109;-68
2021/08/07 00:21:30;;;;;;;10.98;3.88;;;16.50;99.90;;;;;;4988985;28;25128;-68
2021/08/07 00:23:56;;;;;;;13.70;3.17;;;16.50;99.90;;;;;;4988984;28;25183;-68
2021/08/07 00:26:22;;;;;;;15.50;3.58;;;16.50;99.90;;;;;;5002627;28;25153;-68
2021/08/07 00:28:47;;;;;;;12.05;2.65;;;16.60;99.90;;;;;;4993353;28;25055;-68
2021/08/07 00:31:13;;;;;;;15.75;3.45;;;16.40;99.90;;;;;;4990853;28;25149;-68
2021/08/07 00:33:38;;;;;;;12.88;2.85;;;16.40;99.90;;;;;;4989432;28;25056;-67
2021/08/07 00:36:04;;;;;;;9.13;2.72;;;16.40;99.90;;;;;;4990491;28;25082;-66
2021/08/07 00:38:30;;;;;;;13.07;3.15;;;16.50;99.90;;;;;;4988664;28;25089;-68
2021/08/07 00:40:56;;;;;;;16.25;3.53;;;16.50;99.90;;;;;;4988974;28;25034;-67
2021/08/07 00:43:22;;;;;;;14.73;3.83;;;16.40;99.90;;;;;;4988934;28;25141;-68
2021/08/07 00:45:48;;;;;;;13.65;3.22;;;16.30;99.90;;;;;;4989088;28;25070;-68
2021/08/07 00:48:13;;;;;;;15.50;3.45;;;16.30;99.90;;;;;;4987577;28;25143;-68
2021/08/07 00:50:39;;;;;;;10.40;3.30;;;16.40;99.90;;;;;;4988534;28;25054;-67
2021/08/07 00:53:06;;;;;;;9.38;3.78;;;16.40;99.90;;;;;;4988155;28;25080;-68
2021/08/07 00:55:32;;;;;;;20.20;3.50;;;16.50;99.90;;;;;;4990367;28;25076;-67
2021/08/07 00:57:57;;;;;;;14.85;3.22;;;16.50;99.90;;;;;;4988047;28;25068;-68
2021/08/07 01:00:23;;;;;;;10.23;3.17;;;16.40;99.90;;;;;;4989610;28;25069;-66
2021/08/07 01:03:32;;;;;;;13.32;3.55;;;16.40;99.90;;;;;;4988674;28;25170;-67
2021/08/07 01:06:27;;;;;;;11.00;2.90;;;16.30;99.90;;;;;;4988981;28;25053;-67
2021/08/07 01:09:11;;;;;;;16.30;3.47;;;16.20;99.90;;;;;;4977650;28;25137;-67
2021/08/07 01:11:55;;;;;;;9.18;3.10;;;16.30;99.90;;;;;;4990164;28;25129;-67
2021/08/07 01:14:28;;;;;;;16.33;3.88;;;16.20;99.90;;;;;;4981853;28;25137;-67
2021/08/07 01:16:54;;;;;;;11.52;4.03;;;16.20;99.90;;;;;;4988977;28;25144;-67
2021/08/07 01:19:22;;;;;;;10.13;3.33;;;16.20;99.90;;;;;;4985133;28;25147;-67
2021/08/07 01:21:59;;;;;;;10.70;3.75;;;16.20;99.90;;;;;;4987911;28;25065;-66
2021/08/07 01:24:37;;;;;;;18.65;4.25;;;16.20;99.90;;;;;;4985283;28;25114;-66
2021/08/07 01:27:08;;;;;;;16.27;3.95;;;16.20;99.90;;;;;;4992097;28;25126;-67
2021/08/07 01:29:34;;;;;;;10.97;4.00;;;16.30;99.90;;;;;;4986705;28;25065;-67
2021/08/07 01:32:01;;;;;;;13.45;3.78;;;16.10;99.90;;;;;;4994907;28;25065;-66
2021/08/07 01:34:27;;;;;;;13.82;3.72;;;16.00;99.90;;;;;;4989128;28;25194;-67
2021/08/07 01:36:53;;;;;;;11.95;3.85;;;15.90;99.90;;;;;;4996818;28;25063;-67
2021/08/07 01:39:19;;;;;;;8.82;4.20;;;15.90;99.90;;;;;;4986779;28;25064;-67
2021/08/07 01:41:45;;;;;;;24.80;4.72;;;15.90;99.90;;;;;;4986368;28;25065;-67
2021/08/07 01:44:11;;;;;;;18.00;4.60;;;15.90;99.90;;;;;;4996160;28;25179;-66
2021/08/07 01:46:43;;;;;;;14.65;4.20;;;15.90;99.90;;;;;;4986012;28;25103;-67
2021/08/07 01:49:18;;;;;;;9.68;4.50;;;15.90;99.90;;;;;;4986475;28;25092;-68
2021/08/07 01:51:48;;;;;;;15.05;4.75;;;15.90;99.90;;;;;;4986672;28;25063;-68
2021/08/07 01:54:20;;;;;;;11.68;4.75;;;15.80;99.90;;;;;;4987081;28;25063;-67
2021/08/07 01:56:46;;;;;;;;;;;15.70;99.90;;;;;;4987083;28;25058;-68
2021/08/07 01:59:17;;;;;;;13.57;4.82;;;15.70;99.90;;;;;;4986956;28;24095;-67
2021/08/07 02:01:46;;;;;;;14.82;5.18;;;15.60;99.90;;;;;;4987238;28;25062;-68
2021/08/07 02:04:14;;;;;;;18.63;5.78;;;15.60;99.90;;;;;;4987065;28;25131;-68
2021/08/07 02:06:40;;;;;;;11.18;5.05;;;15.60;99.90;;;;;;4986211;28;25168;-67
2021/08/07 02:09:06;;;;;;;15.45;6.10;;;15.60;99.90;;;;;;4985564;28;25074;-66
2021/08/07 02:11:33;;;;;;;16.48;5.90;;;15.60;99.90;;;;;;4986179;28;25081;-67
2021/08/07 02:14:00;;;;;;;13.80;6.05;;;15.60;99.90;;;;;;4985570;28;25169;-67
2021/08/07 02:16:26;;;;;;;16.48;6.82;;;15.60;99.90;;;;;;4985937;28;25047;-68
2021/08/07 02:18:53;;;;;;;10.32;6.00;;;15.50;99.90;;;;;;4985845;28;25072;-66
2021/08/07 02:21:20;;;;;;;18.58;6.53;;;15.50;99.90;;;;;;4986586;28;25050;-67
2021/08/07 02:23:47;;;;;;;14.68;6.20;;;15.50;99.90;;;;;;4986113;28;25074;-69
2021/08/07 02:26:15;;;;;;;15.90;7.07;;;15.50;99.90;;;;;;4985918;28;25083;-67
2021/08/07 02:28:41;;;;;;;14.48;7.38;;;15.50;99.90;;;;;;4985381;28;25067;-67
2021/08/07 02:31:09;;;;;;;15.30;6.45;;;15.60;99.90;;;;;;4986677;28;25056;-67
2021/08/07 02:33:36;;;;;;;18.55;5.80;;;15.60;99.90;;;;;;4979774;28;25068;-67
2021/08/07 02:36:02;;;;;;;21.83;7.22;;;15.70;99.90;;;;;;4991593;28;25176;-69
2021/08/07 02:38:30;;;;;;;19.30;7.30;;;15.70;99.90;;;;;;4993035;28;25138;-68
2021/08/07 02:41:00;;;;;;;18.08;6.93;;;15.60;99.90;;;;;;4993579;28;25162;-68
2021/08/07 02:43:26;;;;;;;17.02;6.75;;;15.60;99.90;;;;;;4993840;28;25092;-68
2021/08/07 02:45:52;;;;;;;13.05;6.13;;;15.50;99.90;;;;;;4990111;28;25060;-68
2021/08/07 02:48:19;;;;;;;15.38;6.05;;;15.50;99.90;;;;;;4989888;28;25128;-69
2021/08/07 02:50:45;;;;;;;20.35;6.18;;;15.60;99.90;;;;;;4994311;28;25062;-68
2021/08/07 02:53:14;;;;;;;19.77;6.38;;;15.60;99.90;;;;;;4996111;28;25101;-67
2021/08/07 02:55:40;;;;;;;17.85;6.03;;;15.70;99.90;;;;;;4990606;28;25062;-69
2021/08/07 02:58:08;;;;;;;18.63;6.25;;;15.70;99.90;;;;;;4989905;28;25118;-68
2021/08/07 03:00:35;;;;;;;17.27;5.65;;;15.70;99.90;;;;;;4994872;28;25092;-67
2021/08/07 03:03:01;;;;;;;13.98;6.00;;;15.60;99.90;;;;;;4994626;28;25074;-67
2021/08/07 03:05:26;;;;;;;15.70;6.85;;;15.70;99.90;;;;;;4994218;28;25073;-68
2021/08/07 03:07:52;;;;;;;16.20;6.07;;;15.70;99.90;;;;;;4985657;28;25132;-68
2021/08/07 03:10:18;;;;;;;15.07;5.75;;;15.70;99.90;;;;;;4992724;28;25078;-67
2021/08/07 03:12:44;;;;;;;15.18;6.20;;;15.70;99.90;;;;;;5001503;28;25099;-67
2021/08/07 03:15:11;;;;;;;19.92;6.55;;;15.80;99.90;;;;;;4992557;28;25061;-69
2021/08/07 03:17:37;;;;;;;18.77;6.28;;;15.80;99.90;;;;;;4989402;28;25068;-66
2021/08/07 03:20:04;;;;;;;16.30;6.05;;;15.90;99.90;;;;;;4993017;28;25058;-67
2021/08/07 03:22:30;;;;;;;16.35;6.28;;;15.90;99.90;;;;;;4988508;28;25136;-67
2021/08/07 03:24:55;;;;;;;17.35;6.80;;;15.80;99.90;;;;;;4988654;28;25090;-68
2021/08/07 03:27:21;;;;;;;16.38;6.18;;;15.90;99.90;;;;;;4985957;28;25063;-67
2021/08/07 03:29:46;;;;;;;15.98;6.53;;;15.90;99.90;;;;;;4990025;28;25142;-67
2021/08/07 03:32:12;;;;;;;15.48;5.30;;;16.00;99.90;;;;;;4991250;28;25065;-68
2021/08/07 03:34:37;;;;;;;14.73;5.97;;;16.10;99.90;;;;;;4996118;28;25068;-66
2021/08/07 03:37:03;;;;;;;13.85;5.68;;;16.00;99.90;;;;;;4986459;28;25057;-68
2021/08/07 03:39:29;;;;;;;12.70;5.50;;;15.90;99.90;;;;;;4994740;28;25056;-68
2021/08/07 03:41:55;;;;;;;16.83;5.30;;;15.90;99.90;;;;;;4978912;28;25111;-66
2021/08/07 03:44:21;;;;;;;14.65;5.55;;;16.00;99.90;;;;;;4988762;28;25091;-67
2021/08/07 03:46:46;;;;;;;12.32;5.70;;;16.00;99.90;;;;;;4989294;28;25136;-67
2021/08/07 03:49:12;;;;;;;18.67;6.25;;;16.00;99.90;;;;;;4993301;28;25083;-66
2021/08/07 03:51:37;;;;;;;14.32;5.70;;;16.00;99.90;;;;;;4987654;28;25072;-67
2021/08/07 03:54:03;;;;;;;14.40;5.80;;;16.00;99.90;;;;;;4993504;28;25063;-67
2021/08/07 03:56:28;;;;;;;12.60;5.85;;;15.90;99.90;;;;;;4994812;28;25071;-68
2021/08/07 03:58:54;;;;;;;19.70;6.43;;;16.00;99.90;;;;;;4992322;28;25065;-67
2021/08/07 04:01:19;;;;;;;14.45;5.70;;;15.90;99.90;;;;;;4988644;28;25122;-67
2021/08/07 04:03:45;;;;;;;11.20;5.25;;;15.90;99.90;;;;;;4988683;28;25107;-66
2021/08/07 04:06:11;;;;;;;18.17;5.95;;;15.90;99.90;;;;;;4990536;28;25092;-68
2021/08/07 04:08:36;;;;;;;16.10;5.53;;;15.90;99.90;;;;;;4987493;28;25058;-68
2021/08/07 04:11:02;;;;;;;12.60;5.30;;;15.80;99.90;;;;;;4985156;28;25117;-67
2021/08/07 04:13:27;;;;;;;18.13;5.82;;;15.80;99.90;;;;;;4989417;28;25069;-67
2021/08/07 04:15:53;;;;;;;14.57;6.57;;;15.80;99.90;;;;;;4989281;28;25052;-67
2021/08/07 04:18:19;;;;;;;17.20;6.22;;;15.80;99.90;;;;;;4989347;28;25102;-66
2021/08/07 04:20:44;;;;;;;12.18;5.55;;;15.70;99.90;;;;;;4992061;28;25093;-66
2021/08/07 04:23:10;;;;;;;16.92;6.93;;;15.70;99.90;;;;;;4986634;28;25128;-67
2021/08/07 04:25:36;;;;;;;20.55;6.53;;;15.70;99.90;;;;;;4987019;28;25151;-66
2021/08/07 04:28:02;;;;;;;13.55;6.68;;;15.70;99.90;;;;;;4985485;28;25116;-67
2021/08/07 04:30:27;;;;;;;18.42;6.55;;;15.60;99.90;;;;;;4992035;28;25095;-67
2021/08/07 04:32:53;;;;;;;11.15;5.93;;;15.60;99.90;;;;;;4990514;28;25093;-68
2021/08/07 04:35:19;;;;;;;17.90;6.30;;;15.70;99.90;;;;;;4989191;28;25148;-67
2021/08/07 04:37:52;;;;;;;16.10;6.35;;;15.60;99.90;;;;;;4987925;28;25139;-68
2021/08/07 04:40:19;;;;;;;14.27;5.82;;;15.70;99.90;;;;;;4987964;28;25069;-67
2021/08/07 04:42:45;;;;;;;10.18;5.60;;;15.70;99.90;;;;;;4989041;28;25085;-67
2021/08/07 04:45:11;;;;;;;15.90;6.43;;;15.60;99.90;;;;;;4989695;28;25068;-67
2021/08/07 04:47:49;;;;;;;11.88;6.00;;;15.60;99.90;;;;;;4988591;28;25056;-67
2021/08/07 04:50:15;;;;;;;14.90;5.15;;;15.60;99.90;;;;;;4989713;28;25087;-67
2021/08/07 04:52:40;;;;;;;13.73;6.35;;;15.60;99.90;;;;;;4987628;28;25110;-65
2021/08/07 04:55:06;;;;;;;17.00;5.95;;;15.70;99.90;;;;;;4988901;28;25108;-66
2021/08/07 04:57:32;;;;;;;14.70;5.93;;;15.60;99.90;;;;;;4991563;28;25101;-67
2021/08/07 04:59:57;;;;;;;14.43;5.85;;;15.60;99.90;;;;;;4988016;28;25052;-67
2021/08/07 05:02:23;;;;;;;15.82;5.53;;;15.60;99.90;;;;;;4988725;28;25175;-67
2021/08/07 05:04:48;;;;;;;11.30;5.85;;;15.60;99.90;;;;;;4988818;28;25113;-66
2021/08/07 05:07:13;;;;;;;15.25;5.43;;;15.70;99.90;;;;;;4988686;28;25068;-65
2021/08/07 05:09:39;;;;;;;13.27;5.10;;;15.60;99.90;;;;;;4991226;28;25051;-68
2021/08/07 05:12:05;;;;;;;13.02;5.35;;;15.70;99.90;;;;;;4991014;28;25098;-68
2021/08/07 05:14:30;;;;;;;10.80;5.10;;;15.60;99.90;;;;;;5004373;28;25068;-67
2021/08/07 05:16:56;;;;;;;18.23;5.57;;;15.60;99.90;;;;;;5006681;28;25099;-66
2021/08/07 05:19:21;;;;;;;15.70;5.15;;;15.70;99.90;;;;;;5008632;28;25053;-66
2021/08/07 05:21:47;;;;;;;15.20;5.20;;;15.70;99.90;;;;;;5009078;28;25081;-66
2021/08/07 05:24:12;;;;;;;9.52;4.75;;;15.80;99.90;;;;;;5005509;28;25092;-68
2021/08/07 05:26:38;;;;;;;14.35;4.57;;;15.80;99.90;;;;;;5008225;28;25072;-67
2021/08/07 05:29:04;;;;;;;14.95;4.28;;;15.80;99.90;;;;;;5009157;28;25154;-67
2021/08/07 05:31:30;;;;;;;8.38;3.70;;;15.80;99.90;;;;;;5005368;28;25067;-67
2021/08/07 05:33:55;;;;;;;20.27;4.20;;;15.80;99.90;;;;;;5007102;28;25075;-67
2021/08/07 05:36:21;;;;;;;12.60;4.05;;;15.80;99.90;;;;;;5004964;28;25069;-67
2021/08/07 05:38:46;;;;;;;5.75;2.90;;;15.90;99.90;;;;;;4999868;28;25145;-67
2021/08/07 05:41:12;;;;;;;10.98;3.63;;;15.90;99.90;;;;;;5006421;28;25049;-67
2021/08/07 05:43:37;;;;;;;9.65;2.78;;;15.90;99.90;;;;;;5010894;28;25078;-67
2021/08/07 05:46:03;;;;;;;7.47;3.15;;;15.90;99.90;;;;;;5006331;28;25068;-67
2021/08/07 05:48:32;;;;;;;13.32;3.17;;;15.90;99.90;;;;;;5004828;28;25086;-66
2021/08/07 05:50:58;;;;;;;7.65;2.97;;;16.00;99.90;;;;;;5008412;28;25048;-67
2021/08/07 05:53:23;;;;;;;9.02;3.00;;;16.10;99.90;;;;;;5001487;28;25064;-67
2021/08/07 05:55:49;;;;;;;10.48;2.72;;;16.10;99.90;;;;;;4992198;28;25161;-67
2021/08/07 05:58:14;;;;;;;12.38;2.88;;;16.00;99.90;;;;;;4996546;28;25095;-68
2021/08/07 06:00:40;;;;;;;8.40;2.72;;;16.10;99.90;;;;;;4992017;28;25053;-67
2021/08/07 06:03:05;;;;;;;12.60;2.92;;;16.10;99.90;;;;;;4990733;28;25140;-66
2021/08/07 06:05:31;;;;;;;11.55;2.60;;;16.20;99.90;;;;;;4991943;28;25061;-67
2021/08/07 06:07:56;;;;;;;11.20;2.67;;;16.20;99.90;;;;;;4994299;28;25068;-68
2021/08/07 06:10:22;;;;;;;10.45;2.30;;;16.20;99.90;;;;;;4995909;28;25068;-68
2021/08/07 06:12:47;;;;;;;9.05;2.60;;;16.20;99.90;;;;;;4992232;28;25076;-67
2021/08/07 06:15:13;;;;;;;8.32;2.78;;;16.20;99.90;;;;;;4991512;28;25060;-68
2021/08/07 06:17:39;;;;;;;5.05;2.83;;;16.20;99.90;;;;;;4997020;28;25144;-68
2021/08/07 06:20:10;;;;;;;12.60;2.35;;;16.30;99.90;;;;;;4993185;28;25064;-69
2021/08/07 06:22:35;;;;;;;10.40;2.72;;;16.30;99.90;;;;;;4986252;28;25046;-68
2021/08/07 06:25:01;;;;;;;9.57;2.63;;;16.30;99.90;;;;;;4992495;28;25073;-68
2021/08/07 06:27:27;;;;;;;7.30;2.22;;;16.40;99.90;;;;;;4989339;28;25060;-67
2021/08/07 06:29:53;;;;;;;7.63;2.25;;;16.50;99.90;;;;;;4995402;28;25054;-68
2021/08/07 06:32:18;;;;;;;3.83;2.08;;;16.60;99.90;;;;;;4991783;28;25067;-68
2021/08/07 06:34:44;;;;;;;10.02;2.20;;;16.60;99.90;;;;;;4990496;28;25076;-69
2021/08/07 06:37:10;;;;;;;5.90;2.25;;;16.60;99.90;;;;;;4990739;28;25058;-66
2021/08/07 06:39:36;;;;;;;6.55;1.73;;;16.60;99.90;;;;;;4990774;28;25117;-67
2021/08/07 06:42:01;;;;;;;7.05;2.33;;;16.60;99.90;;;;;;4989441;28;25067;-67
2021/08/07 06:44:27;;;;;;;9.00;1.95;;;16.60;99.90;;;;;;4991033;28;25101;-66
2021/08/07 06:46:53;;;;;;;9.15;2.40;;;16.60;99.90;;;;;;4989890;28;25125;-68
2021/08/07 06:49:18;;;;;;;7.90;2.03;;;16.50;99.90;;;;;;4988182;28;25092;-67
2021/08/07 06:51:44;;;;;;;5.05;1.92;;;16.60;99.90;;;;;;4989547;28;25077;-68
2021/08/07 06:54:09;;;;;;;12.25;2.35;;;16.60;99.90;;;;;;4989541;28;25083;-67
2021/08/07 06:56:35;;;;;;;7.88;1.83;;;16.70;99.90;;;;;;4989586;28;25063;-67
2021/08/07 06:59:00;;;;;;;10.13;2.47;;;16.60;99.90;;;;;;4988412;28;25101;-67
2021/08/07 07:01:26;;;;;;;5.95;2.30;;;16.70;99.90;;;;;;4993641;28;25055;-68
2021/08/07 07:03:51;;;;;;;9.07;2.63;;;16.80;99.90;;;;;;4994662;28;25086;-68
2021/08/07 07:06:17;;;;;;;11.73;2.40;;;16.90;99.90;;;;;;4989043;28;25166;-68
2021/08/07 07:08:42;;;;;;;8.38;2.30;;;16.90;99.90;;;;;;4996216;28;25125;-69
2021/08/07 07:11:08;;;;;;;6.25;1.95;;;16.80;99.90;;;;;;4993359;28;25063;-69
2021/08/07 07:13:33;;;;;;;5.22;2.30;;;16.70;99.90;;;;;;4990213;28;25058;-67
2021/08/07 07:15:59;;;;;;;10.38;2.05;;;16.70;99.90;;;;;;4984259;28;25092;-67
2021/08/07 07:18:25;;;;;;;6.68;2.33;;;16.80;99.90;;;;;;4994314;28;25120;-66
2021/08/07 07:20:50;;;;;;;9.30;2.28;;;16.80;99.90;;;;;;4992247;28;25081;-68
2021/08/07 07:23:16;;;;;;;9.77;2.10;;;16.70;99.90;;;;;;4995359;28;25060;-69
2021/08/07 07:25:41;;;;;;;10.50;2.17;;;16.80;99.90;;;;;;4991610;28;25094;-68
2021/08/07 07:28:07;;;;;;;4.57;1.95;;;16.90;99.90;;;;;;4993579;28;25129;-68
2021/08/07 07:30:32;;;;;;;8.65;2.53;;;16.90;99.90;;;;;;4991152;28;25063;-67
2021/08/07 07:32:59;;;;;;;10.57;2.45;;;16.90;99.90;;;;;;4998029;28;25076;-69
2021/08/07 07:35:24;;;;;;;10.68;3.00;;;16.80;99.90;;;;;;4990196;28;25157;-67
2021/08/07 07:37:50;;;;;;;6.07;1.92;;;16.90;99.90;;;;;;4989934;28;25092;-68
2021/08/07 07:40:15;;;;;;;6.38;2.10;;;17.00;99.90;;;;;;4992362;28;25096;-67
2021/08/07 07:42:41;;;;;;;8.98;2.20;;;17.10;99.90;;;;;;4992221;28;25068;-68
2021/08/07 07:45:08;;;;;;;6.55;2.42;;;17.20;99.90;;;;;;4988828;28;25075;-68
2021/08/07 07:47:33;;;;;;;10.23;2.50;;;17.30;99.90;;;;;;4983555;28;25107;-67
2021/08/07 07:49:59;;;;;;;6.97;2.15;;;17.40;99.90;;;;;;4991890;28;25135;-68
2021/08/07 07:52:24;;;;;;;9.30;2.17;;;17.50;99.90;;;;;;4992580;28;25098;-68
2021/08/07 07:54:50;;;;;;;11.30;2.40;;;17.60;99.90;;;;;;5010329;28;25079;-68
2021/08/07 07:57:15;;;;;;;9.25;2.47;;;17.60;99.90;;;;;;4994020;28;25127;-67
2021/08/07 07:59:41;;;;;;;10.40;2.50;;;17.50;99.90;;;;;;4986959;28;25129;-68
2021/08/07 08:02:07;;;;;;;6.55;2.22;;;17.40;99.90;;;;;;4986362;28;25143;-68
2021/08/07 08:04:33;;;;;;;6.85;2.13;;;17.30;99.90;;;;;;4989070;28;25099;-68
2021/08/07 08:07:00;;;;;;;12.13;2.75;;;17.30;99.90;;;;;;4987879;28;25174;-68
2021/08/07 08:09:27;;;;;;;7.47;1.90;;;17.30;99.90;;;;;;4988284;28;25098;-67
2021/08/07 08:11:53;;;;;;;8.57;2.50;;;17.50;99.90;;;;;;4988720;28;25103;-67
2021/08/07 08:14:21;;;;;;;5.25;1.90;;;17.70;99.90;;;;;;4990524;28;24926;-68
2021/08/07 08:16:47;;;;;;;8.02;2.40;;;18.00;99.90;;;;;;4990998;28;25065;-71
2021/08/07 08:19:14;;;;;;;5.95;1.77;;;18.20;99.90;;;;;;4987238;28;25069;-66
2021/08/07 08:21:40;;;;;;;5.35;1.92;;;18.30;99.90;;;;;;4985285;28;25098;-69
2021/08/07 08:24:05;;;;;;;7.50;2.20;;;18.40;99.90;;;;;;4988896;28;25138;-67
2021/08/07 08:26:32;;;;;;;6.40;2.22;;;18.60;99.90;;;;;;4988423;28;25067;-68
2021/08/07 08:28:57;;;;;;;6.38;1.90;;;18.70;99.90;;;;;;4986219;28;25080;-68
2021/08/07 08:31:23;;;;;;;12.25;2.45;;;19.10;99.90;;;;;;4977870;28;25083;-68
2021/08/07 08:33:48;;;;;;;3.35;1.52;;;19.40;99.90;;;;;;4993543;28;25142;-69
2021/08/07 08:36:14;;;;;;;6.80;1.67;;;19.50;99.90;;;;;;4990399;28;25050;-68
2021/08/07 08:38:39;;;;;;;4.03;1.70;;;19.30;99.90;;;;;;4988291;28;25080;-67
2021/08/07 08:41:05;;;;;;;4.82;1.50;;;19.20;99.90;;;;;;4985531;28;25053;-68
2021/08/07 08:43:31;;;;;;;3.05;1.50;;;19.00;99.90;;;;;;4987368;28;25121;-69
2021/08/07 08:45:56;;;;;;;6.35;1.30;;;19.00;99.90;;;;;;4986157;28;25060;-68
2021/08/07 08:48:23;;;;;;;4.03;1.58;;;19.00;99.90;;;;;;4987059;28;25084;-68
2021/08/07 08:50:49;;;;;;;8.50;1.65;;;19.20;99.90;;;;;;4986483;28;25087;-68
2021/08/07 08:53:15;;;;;;;4.15;1.50;;;19.20;99.90;;;;;;4988337;28;25055;-69
2021/08/07 08:55:41;;;;;;;6.32;1.88;;;19.10;99.90;;;;;;4995529;28;25078;-68
2021/08/07 08:58:06;;;;;;;11.27;2.30;;;19.20;99.90;;;;;;4998851;28;25076;-68
2021/08/07 09:00:32;;;;;;;3.20;2.10;;;19.10;99.90;;;;;;4992284;28;25104;-68
2021/08/07 09:02:58;;;;;;;4.82;2.53;;;19.20;99.90;;;;;;4989875;28;25151;-69
2021/08/07 09:05:24;;;;;;;8.00;2.80;;;19.20;99.90;;;;;;4987363;28;25067;-69
2021/08/07 09:07:50;;;;;;;9.23;3.63;;;19.20;99.90;;;;;;4987567;28;25164;-68
2021/08/07 09:10:20;;;;;;;6.03;2.38;;;19.10;99.90;;;;;;4988619;28;25074;-69
2021/08/07 09:12:49;;;;;;;6.43;2.80;;;19.10;99.90;;;;;;4990354;28;25094;-69
2021/08/07 09:15:34;;;;;;;4.95;3.35;;;19.00;99.90;;;;;;4988123;28;25086;-68
2021/08/07 09:18:15;;;;;;;8.52;4.10;;;18.90;99.90;;;;;;4986741;28;25064;-67
2021/08/07 09:20:45;;;;;;;10.43;4.95;;;18.90;99.90;;;;;;4984263;28;25148;-70
2021/08/07 09:23:11;;;;;;;9.48;4.38;;;18.80;99.90;;;;;;4985298;28;25056;-67
2021/08/07 09:25:47;;;;;;;9.63;3.97;;;18.80;99.90;;;;;;4987340;28;25083;-69
2021/08/07 09:28:12;;;;;;;13.77;3.97;;;18.70;99.90;;;;;;5000022;28;25098;-68
2021/08/07 09:30:40;;;;;;;7.38;3.67;;;18.80;99.90;;;;;;4985331;28;25099;-68
2021/08/07 09:33:10;;;;;;;7.47;3.65;;;19.10;99.90;;;;;;4983675;28;25083;-68
2021/08/07 09:35:44;;;;;;;9.27;2.90;;;19.10;99.90;;;;;;4986593;28;25055;-69
2021/08/07 09:38:20;;;;;;;10.43;3.17;;;19.40;99.90;;;;;;4985486;28;25062;-68
2021/08/07 09:41:05;;;;;;;4.80;2.58;;;19.30;99.90;;;;;;4981589;28;25066;-69
2021/08/07 09:43:35;;;;;;;8.30;2.50;;;19.20;99.90;;;;;;4985684;28;25054;-68
2021/08/07 09:46:07;;;;;;;5.82;2.00;;;19.30;99.90;;;;;;4991240;28;25125;-69
2021/08/07 09:48:47;;;;;;;8.50;2.85;;;19.40;99.90;;;;;;4967045;28;25065;-67
2021/08/07 09:51:36;;;;;;;8.95;1.98;;;19.70;99.90;;;;;;4986514;28;25114;-68
2021/08/07 09:54:12;;;;;;;10.15;2.15;;;19.70;99.90;;;;;;4984143;28;25084;-68
2021/08/07 09:56:52;;;;;;;4.82;2.28;;;20.00;99.90;;;;;;4985323;28;25070;-68
2021/08/07 09:59:29;;;;;;;4.72;1.88;;;20.10;99.90;;;;;;4988453;28;25099;-69
2021/08/07 10:01:56;;;;;;;7.82;2.38;;;20.20;99.90;;;;;;4984698;28;25117;-69
2021/08/07 10:04:22;;;;;;;3.47;2.00;;;20.20;99.90;;;;;;4986384;28;25102;-70
2021/08/07 10:07:07;;;;;;;4.45;1.90;;;19.90;99.90;;;;;;4986180;28;25167;-69
2021/08/07 10:09:34;;;;;;;6.82;2.15;;;19.90;99.90;;;;;;4981998;28;25062;-70
2021/08/07 10:12:02;;;;;;;6.20;2.00;;;20.20;99.90;;;;;;4981105;28;25078;-68
2021/08/07 10:14:28;;;;;;;6.93;2.33;;;20.30;99.90;;;;;;4986279;28;25099;-68
2021/08/07 10:16:54;;;;;;;4.57;1.63;;;20.10;99.90;;;;;;4989451;28;25078;-66
2021/08/07 10:19:21;;;;;;;4.78;2.17;;;19.80;99.90;;;;;;4987707;28;25105;-70
2021/08/07 10:21:49;;;;;;;5.32;1.80;;;19.70;99.90;;;;;;4987508;28;25057;-69
2021/08/07 10:24:16;;;;;;;7.55;1.90;;;19.90;99.90;;;;;;4993986;28;25090;-69
2021/08/07 10:26:45;;;;;;;6.57;2.35;;;20.40;99.90;;;;;;4992643;28;25086;-69
2021/08/07 10:29:13;;;;;;;4.13;1.73;;;20.60;99.90;;;;;;4992397;28;25125;-71
2021/08/07 10:31:39;;;;;;;6.03;1.52;;;20.60;99.90;;;;;;4991867;28;25071;-70
2021/08/07 10:34:08;;;;;;;5.47;1.65;;;20.90;99.90;;;;;;4991675;28;25156;-70
2021/08/07 10:36:34;;;;;;;4.38;1.50;;;20.80;99.90;;;;;;4987938;28;25111;-68
2021/08/07 10:39:02;;;;;;;4.05;1.10;;;20.60;99.90;;;;;;4987394;28;25060;-69
2021/08/07 10:41:29;;;;;;;8.13;2.10;;;20.60;99.90;;;;;;4988747;28;25102;-68
2021/08/07 10:44:00;;;;;;;6.53;1.48;;;20.80;99.90;;;;;;4992845;28;25169;-70
2021/08/07 10:46:28;;;;;;;5.47;1.50;;;20.80;99.90;;;;;;4987360;28;25090;-69
2021/08/07 10:48:54;;;;;;;3.55;1.35;;;20.90;99.90;;;;;;4988806;28;25066;-69
2021/08/07 10:51:19;;;;;;;7.78;1.70;;;20.90;99.90;;;;;;4992240;28;25103;-66
2021/08/07 10:54:00;;;;;;;3.95;1.45;;;20.90;99.90;;;;;;4997884;28;25089;-68
2021/08/07 10:56:31;;;;;;;5.03;1.35;;;21.00;99.90;;;;;;4987247;28;25143;-67
2021/08/07 10:58:58;;;;;;;3.22;1.50;;;20.90;99.90;;;;;;4995680;28;25071;-68
2021/08/07 11:01:27;;;;;;;5.60;1.48;;;21.10;99.90;;;;;;4993613;28;25075;-65
2021/08/07 11:04:03;;;;;;;4.05;1.30;;;21.20;99.90;;;;;;5009457;28;25112;-67
2021/08/07 11:06:38;;;;;;;5.18;1.85;;;21.10;99.90;;;;;;5003200;28;25071;-67
2021/08/07 11:09:22;;;;;;;7.57;1.42;;;21.10;99.90;;;;;;4996347;28;25071;-70
2021/08/07 11:11:50;;;;;;;13.40;2.00;;;21.20;99.90;;;;;;4999148;28;25070;-70
2021/08/07 11:14:25;;;;;;;13.75;2.40;;;21.60;99.90;;;;;;4992381;28;25056;-69
2021/08/07 11:17:04;;;;;;;8.23;1.20;;;21.90;99.90;;;;;;4989228;28;25105;-69
2021/08/07 11:20:07;;;;;;;3.15;1.13;;;22.10;99.90;;;;;;4990796;28;25081;-69
2021/08/07 11:22:34;;;;;;;3.10;1.17;;;22.00;99.90;;;;;;4981049;28;25150;-66
2021/08/07 11:25:17;;;;;;;5.97;1.08;;;21.90;99.90;;;;;;4988293;28;25054;-68
2021/08/07 11:27:46;;;;;;;3.63;1.25;;;22.20;99.90;;;;;;4989162;28;25106;-69
2021/08/07 11:30:41;;;;;;;3.08;1.27;;;22.10;99.90;;;;;;4989648;28;25065;-69
2021/08/07 11:33:09;;;;;;;7.05;1.45;;;22.20;99.90;;;;;;4981161;28;25073;-70
2021/08/07 11:35:38;;;;;;;4.60;1.25;;;22.30;99.90;;;;;;4990626;28;25140;-69
2021/08/07 11:40:45;;;;;;;3.03;1.08;;;22.20;99.90;;;;;;4990504;28;25152;-70
2021/08/07 11:43:24;;;;;;;8.98;1.30;;;21.90;99.90;;;;;;4988926;28;25069;-68
2021/08/07 11:45:55;;;;;;;3.15;1.10;;;21.80;99.90;;;;;;4989062;28;25075;-69
2021/08/07 11:48:25;;;;;;;3.78;1.17;;;21.60;99.90;;;;;;5001507;28;25075;-72
2021/08/07 11:50:51;;;;;;;8.38;1.60;;;21.70;99.90;;;;;;4992943;28;25054;-70
2021/08/07 11:53:19;;;;;;;3.88;0.93;;;21.70;99.90;;;;;;4996026;28;25056;-66
2021/08/07 11:56:02;;;;;;;2.40;1.00;;;21.80;99.90;;;;;;4994886;28;25066;-68
2021/08/07 11:58:30;;;;;;;6.15;1.20;;;21.90;99.90;;;;;;4993377;28;25068;-68
2021/08/07 12:01:00;;;;;;;4.03;0.93;;;21.70;99.90;;;;;;4994284;28;25100;-69
2021/08/07 12:03:27;;;;;;;3.13;0.85;;;21.80;99.90;;;;;;4994417;28;25052;-69
2021/08/07 12:06:00;;;;;;;5.32;1.23;;;21.90;99.90;;;;;;4993367;28;25106;-69
2021/08/07 12:08:31;;;;;;;3.03;1.10;;;22.30;99.90;;;;;;4993362;28;25102;-68
2021/08/07 12:11:06;;;;;;;4.57;1.42;;;22.60;99.90;;;;;;4985443;28;25109;-68
2021/08/07 12:13:34;;;;;;;4.65;1.75;;;22.50;99.90;;;;;;4991969;28;25090;-67
2021/08/07 12:16:14;;;;;;;10.63;1.88;;;22.10;99.90;;;;;;4990566;28;25070;-68
2021/08/07 12:18:44;;;;;;;3.78;1.10;;;21.60;99.90;;;;;;4999349;28;25161;-69
2021/08/07 12:21:12;;;;;;;6.07;1.45;;;21.40;99.90;;;;;;4995098;28;25075;-67
2021/08/07 12:23:50;;;;;;;3.08;1.05;;;21.20;99.90;;;;;;4992078;28;25094;-68
2021/08/07 12:26:20;;;;;;;5.50;1.50;;;21.10;99.90;;;;;;4995504;28;25129;-66
2021/08/07 12:28:47;;;;;;;8.77;2.13;;;21.10;99.90;;;;;;4992127;28;25071;-69
2021/08/07 12:31:12;;;;;;;6.13;1.20;;;21.30;99.90;;;;;;4993273;28;25053;-69
2021/08/07 12:33:43;;;;;;;2.22;0.90;;;21.50;99.90;;;;;;4989147;28;25075;-68
2021/08/07 12:36:16;;;;;;;2.28;1.58;;;21.90;99.90;;;;;;4996561;28;25048;-67
2021/08/07 12:38:44;;;;;;;4.00;1.60;;;22.20;99.90;;;;;;4983331;28;25105;-66
2021/08/07 12:41:10;;;;;;;5.35;1.10;;;22.40;99.90;;;;;;4989628;28;25105;-70
2021/08/07 12:43:36;;;;;;;3.40;1.30;;;22.60;99.90;;;;;;4988472;28;25058;-71
2021/08/07 12:46:07;;;;;;;8.45;0.95;;;22.50;99.90;;;;;;4988908;28;25055;-70
2021/08/07 12:48:52;;;;;;;10.70;2.30;;;22.20;99.90;;;;;;4988373;28;25135;-67
2021/08/07 12:51:24;;;;;;;3.08;1.13;;;22.50;99.90;;;;;;4987839;28;25172;-70